sensor_id;sensor_type;location;lat;lon;timestamp;P1;durP1;ratioP1;P2;durP2;ratioP2
41221;SDS011;26952;42.884;23.918;2023-03-11T00:00:24;41.75;;;39.60;;
41221;SDS011;26952;42.884;23.918;2023-03-11T00:02:51;42.30;;;40.22;;
41221;SDS011;26952;42.884;23.918;2023-03-11T00:05:20;38.90;;;36.88;;
41221;SDS011;26952;42.884;23.918;2023-03-11T00:10:15;24.27;;;22.73;;
41221;SDS011;26952;42.884;23.918;2023-03-11T00:12:46;29.95;;;28.15;;
41221;SDS011;26952;42.884;23.918;2023-03-11T00:15:11;34.33;;;32.25;;
41221;SDS011;26952;42.884;23.918;2023-03-11T00:17:37;30.95;;;29.38;;
41221;SDS011;26952;42.884;23.918;2023-03-11T00:20:04;25.98;;;24.67;;
41221;SDS011;26952;42.884;23.918;2023-03-11T00:22:31;22.45;;;21.25;;
41221;SDS011;26952;42.884;23.918;2023-03-11T00:24:57;23.95;;;22.70;;
41221;SDS011;26952;42.884;23.918;2023-03-11T00:27:22;23.30;;;22.10;;
41221;SDS011;26952;42.884;23.918;2023-03-11T00:29:48;23.75;;;22.35;;
41221;SDS011;26952;42.884;23.918;2023-03-11T00:32:13;24.90;;;23.60;;
41221;SDS011;26952;42.884;23.918;2023-03-11T00:34:40;25.38;;;23.92;;
41221;SDS011;26952;42.884;23.918;2023-03-11T00:37:05;22.42;;;21.10;;
41221;SDS011;26952;42.884;23.918;2023-03-11T00:39:30;25.63;;;24.27;;
41221;SDS011;26952;42.884;23.918;2023-03-11T00:41:56;26.63;;;25.20;;
41221;SDS011;26952;42.884;23.918;2023-03-11T00:44:21;32.45;;;30.58;;
41221;SDS011;26952;42.884;23.918;2023-03-11T00:46:47;29.77;;;28.20;;
41221;SDS011;26952;42.884;23.918;2023-03-11T00:49:12;27.27;;;25.50;;
41221;SDS011;26952;42.884;23.918;2023-03-11T00:51:38;30.85;;;29.00;;
41221;SDS011;26952;42.884;23.918;2023-03-11T00:54:03;32.25;;;30.52;;
41221;SDS011;26952;42.884;23.918;2023-03-11T00:56:29;34.35;;;32.35;;
41221;SDS011;26952;42.884;23.918;2023-03-11T00:58:55;38.58;;;36.22;;
41221;SDS011;26952;42.884;23.918;2023-03-11T01:01:20;39.67;;;37.45;;
41221;SDS011;26952;42.884;23.918;2023-03-11T01:03:46;35.80;;;33.55;;
41221;SDS011;26952;42.884;23.918;2023-03-11T01:06:11;43.30;;;40.95;;
41221;SDS011;26952;42.884;23.918;2023-03-11T01:08:37;40.80;;;38.38;;
41221;SDS011;26952;42.884;23.918;2023-03-11T01:11:03;44.42;;;41.58;;
41221;SDS011;26952;42.884;23.918;2023-03-11T01:13:30;43.15;;;40.55;;
41221;SDS011;26952;42.884;23.918;2023-03-11T01:15:56;39.90;;;37.47;;
41221;SDS011;26952;42.884;23.918;2023-03-11T01:18:22;44.15;;;41.42;;
41221;SDS011;26952;42.884;23.918;2023-03-11T01:20:47;46.83;;;44.08;;
41221;SDS011;26952;42.884;23.918;2023-03-11T01:23:13;44.85;;;42.00;;
41221;SDS011;26952;42.884;23.918;2023-03-11T01:25:40;47.17;;;44.28;;
41221;SDS011;26952;42.884;23.918;2023-03-11T01:28:06;39.00;;;36.65;;
41221;SDS011;26952;42.884;23.918;2023-03-11T01:30:35;42.63;;;40.13;;
41221;SDS011;26952;42.884;23.918;2023-03-11T01:33:03;36.08;;;33.85;;
41221;SDS011;26952;42.884;23.918;2023-03-11T01:35:30;30.52;;;28.85;;
41221;SDS011;26952;42.884;23.918;2023-03-11T01:37:56;31.75;;;29.85;;
41221;SDS011;26952;42.884;23.918;2023-03-11T01:40:27;28.88;;;27.25;;
41221;SDS011;26952;42.884;23.918;2023-03-11T01:43:00;21.73;;;20.23;;
41221;SDS011;26952;42.884;23.918;2023-03-11T01:47:55;21.98;;;20.75;;
41221;SDS011;26952;42.884;23.918;2023-03-11T01:50:21;18.75;;;17.50;;
41221;SDS011;26952;42.884;23.918;2023-03-11T01:52:46;20.58;;;19.35;;
41221;SDS011;26952;42.884;23.918;2023-03-11T01:55:12;19.40;;;18.15;;
41221;SDS011;26952;42.884;23.918;2023-03-11T01:57:41;17.75;;;16.77;;
41221;SDS011;26952;42.884;23.918;2023-03-11T02:00:10;18.83;;;17.80;;
41221;SDS011;26952;42.884;23.918;2023-03-11T02:05:07;15.30;;;14.10;;
41221;SDS011;26952;42.884;23.918;2023-03-11T02:07:33;16.65;;;15.57;;
41221;SDS011;26952;42.884;23.918;2023-03-11T02:09:59;17.17;;;16.08;;
41221;SDS011;26952;42.884;23.918;2023-03-11T02:12:27;19.67;;;18.02;;
41221;SDS011;26952;42.884;23.918;2023-03-11T02:14:55;15.57;;;14.45;;
41221;SDS011;26952;42.884;23.918;2023-03-11T02:17:20;15.20;;;14.27;;
41221;SDS011;26952;42.884;23.918;2023-03-11T02:20:04;14.52;;;13.75;;
41221;SDS011;26952;42.884;23.918;2023-03-11T02:22:41;12.38;;;11.45;;
41221;SDS011;26952;42.884;23.918;2023-03-11T02:27:39;13.40;;;12.45;;
41221;SDS011;26952;42.884;23.918;2023-03-11T02:30:07;15.07;;;14.23;;
41221;SDS011;26952;42.884;23.918;2023-03-11T02:32:34;17.77;;;16.92;;
41221;SDS011;26952;42.884;23.918;2023-03-11T02:35:01;19.38;;;18.38;;
41221;SDS011;26952;42.884;23.918;2023-03-11T02:37:27;18.65;;;17.67;;
41221;SDS011;26952;42.884;23.918;2023-03-11T02:39:53;20.13;;;19.17;;
41221;SDS011;26952;42.884;23.918;2023-03-11T02:42:28;16.27;;;15.52;;
41221;SDS011;26952;42.884;23.918;2023-03-11T02:45:10;18.65;;;17.75;;
41221;SDS011;26952;42.884;23.918;2023-03-11T02:47:38;21.70;;;20.70;;
41221;SDS011;26952;42.884;23.918;2023-03-11T02:50:05;19.65;;;18.55;;
41221;SDS011;26952;42.884;23.918;2023-03-11T02:52:33;19.30;;;18.17;;
41221;SDS011;26952;42.884;23.918;2023-03-11T02:55:00;23.05;;;21.65;;
41221;SDS011;26952;42.884;23.918;2023-03-11T02:57:25;25.80;;;24.30;;
41221;SDS011;26952;42.884;23.918;2023-03-11T02:59:50;26.25;;;24.75;;
41221;SDS011;26952;42.884;23.918;2023-03-11T03:02:16;25.55;;;23.75;;
41221;SDS011;26952;42.884;23.918;2023-03-11T03:04:42;22.75;;;21.25;;
41221;SDS011;26952;42.884;23.918;2023-03-11T03:07:07;17.92;;;16.88;;
41221;SDS011;26952;42.884;23.918;2023-03-11T03:09:33;17.95;;;16.98;;
41221;SDS011;26952;42.884;23.918;2023-03-11T03:11:59;18.90;;;17.75;;
41221;SDS011;26952;42.884;23.918;2023-03-11T03:14:25;17.75;;;16.85;;
41221;SDS011;26952;42.884;23.918;2023-03-11T03:16:50;20.40;;;18.98;;
41221;SDS011;26952;42.884;23.918;2023-03-11T03:19:16;18.73;;;17.80;;
41221;SDS011;26952;42.884;23.918;2023-03-11T03:21:41;23.23;;;21.95;;
41221;SDS011;26952;42.884;23.918;2023-03-11T03:24:06;20.80;;;19.73;;
41221;SDS011;26952;42.884;23.918;2023-03-11T03:26:32;23.33;;;22.17;;
41221;SDS011;26952;42.884;23.918;2023-03-11T03:28:57;21.65;;;20.55;;
41221;SDS011;26952;42.884;23.918;2023-03-11T03:31:24;24.40;;;23.15;;
41221;SDS011;26952;42.884;23.918;2023-03-11T03:33:49;23.42;;;21.83;;
41221;SDS011;26952;42.884;23.918;2023-03-11T03:36:15;22.02;;;20.85;;
41221;SDS011;26952;42.884;23.918;2023-03-11T03:38:40;18.65;;;17.75;;
41221;SDS011;26952;42.884;23.918;2023-03-11T03:41:06;18.23;;;17.17;;
41221;SDS011;26952;42.884;23.918;2023-03-11T03:43:31;17.40;;;16.50;;
41221;SDS011;26952;42.884;23.918;2023-03-11T03:45:57;15.32;;;14.52;;
41221;SDS011;26952;42.884;23.918;2023-03-11T03:48:24;16.63;;;15.80;;
41221;SDS011;26952;42.884;23.918;2023-03-11T03:50:50;17.73;;;16.63;;
41221;SDS011;26952;42.884;23.918;2023-03-11T03:53:16;17.75;;;16.77;;
41221;SDS011;26952;42.884;23.918;2023-03-11T03:55:41;20.02;;;18.63;;
41221;SDS011;26952;42.884;23.918;2023-03-11T03:58:07;19.58;;;18.55;;
41221;SDS011;26952;42.884;23.918;2023-03-11T04:00:32;18.00;;;17.10;;
41221;SDS011;26952;42.884;23.918;2023-03-11T04:02:58;18.73;;;17.80;;
41221;SDS011;26952;42.884;23.918;2023-03-11T04:05:24;32.33;;;29.35;;
41221;SDS011;26952;42.884;23.918;2023-03-11T04:07:51;30.13;;;27.52;;
41221;SDS011;26952;42.884;23.918;2023-03-11T04:10:16;45.33;;;39.75;;
41221;SDS011;26952;42.884;23.918;2023-03-11T04:12:42;33.15;;;29.80;;
41221;SDS011;26952;42.884;23.918;2023-03-11T04:15:07;34.30;;;31.00;;
41221;SDS011;26952;42.884;23.918;2023-03-11T04:17:33;34.58;;;31.27;;
41221;SDS011;26952;42.884;23.918;2023-03-11T04:19:59;24.40;;;22.35;;
41221;SDS011;26952;42.884;23.918;2023-03-11T04:22:24;18.23;;;17.05;;
41221;SDS011;26952;42.884;23.918;2023-03-11T04:24:49;16.08;;;14.65;;
41221;SDS011;26952;42.884;23.918;2023-03-11T04:27:15;14.65;;;13.75;;
41221;SDS011;26952;42.884;23.918;2023-03-11T04:29:40;12.02;;;11.38;;
41221;SDS011;26952;42.884;23.918;2023-03-11T04:32:06;15.48;;;14.38;;
41221;SDS011;26952;42.884;23.918;2023-03-11T04:34:31;10.63;;;10.02;;
41221;SDS011;26952;42.884;23.918;2023-03-11T04:36:57;11.95;;;11.40;;
41221;SDS011;26952;42.884;23.918;2023-03-11T04:39:22;12.93;;;12.23;;
41221;SDS011;26952;42.884;23.918;2023-03-11T04:41:47;13.32;;;12.63;;
41221;SDS011;26952;42.884;23.918;2023-03-11T04:44:13;11.98;;;11.35;;
41221;SDS011;26952;42.884;23.918;2023-03-11T04:46:38;15.23;;;14.32;;
41221;SDS011;26952;42.884;23.918;2023-03-11T04:49:04;15.63;;;14.52;;
41221;SDS011;26952;42.884;23.918;2023-03-11T04:51:29;17.33;;;16.30;;
41221;SDS011;26952;42.884;23.918;2023-03-11T04:53:55;15.63;;;14.75;;
41221;SDS011;26952;42.884;23.918;2023-03-11T04:56:20;17.17;;;16.02;;
41221;SDS011;26952;42.884;23.918;2023-03-11T04:58:46;14.77;;;13.95;;
41221;SDS011;26952;42.884;23.918;2023-03-11T05:01:11;13.25;;;12.52;;
41221;SDS011;26952;42.884;23.918;2023-03-11T05:03:37;11.00;;;10.43;;
41221;SDS011;26952;42.884;23.918;2023-03-11T05:06:02;11.90;;;11.10;;
41221;SDS011;26952;42.884;23.918;2023-03-11T05:08:28;10.90;;;10.18;;
41221;SDS011;26952;42.884;23.918;2023-03-11T05:10:53;11.55;;;10.63;;
41221;SDS011;26952;42.884;23.918;2023-03-11T05:13:19;9.32;;;8.73;;
41221;SDS011;26952;42.884;23.918;2023-03-11T05:15:45;9.88;;;9.32;;
41221;SDS011;26952;42.884;23.918;2023-03-11T05:18:11;10.32;;;9.70;;
41221;SDS011;26952;42.884;23.918;2023-03-11T05:20:37;11.10;;;10.20;;
41221;SDS011;26952;42.884;23.918;2023-03-11T05:23:03;16.90;;;15.88;;
41221;SDS011;26952;42.884;23.918;2023-03-11T05:25:29;13.18;;;12.57;;
41221;SDS011;26952;42.884;23.918;2023-03-11T05:27:55;7.57;;;7.28;;
41221;SDS011;26952;42.884;23.918;2023-03-11T05:30:20;4.78;;;4.57;;
41221;SDS011;26952;42.884;23.918;2023-03-11T05:32:46;4.07;;;3.88;;
41221;SDS011;26952;42.884;23.918;2023-03-11T05:35:11;6.78;;;6.47;;
41221;SDS011;26952;42.884;23.918;2023-03-11T05:37:37;6.20;;;5.90;;
41221;SDS011;26952;42.884;23.918;2023-03-11T05:40:04;5.95;;;5.72;;
41221;SDS011;26952;42.884;23.918;2023-03-11T05:42:31;5.38;;;5.18;;
41221;SDS011;26952;42.884;23.918;2023-03-11T05:44:57;5.97;;;5.68;;
41221;SDS011;26952;42.884;23.918;2023-03-11T05:47:22;4.50;;;4.30;;
41221;SDS011;26952;42.884;23.918;2023-03-11T05:49:48;4.00;;;3.80;;
41221;SDS011;26952;42.884;23.918;2023-03-11T05:52:14;3.58;;;3.47;;
41221;SDS011;26952;42.884;23.918;2023-03-11T05:54:40;4.40;;;4.22;;
41221;SDS011;26952;42.884;23.918;2023-03-11T05:57:05;6.10;;;5.88;;
41221;SDS011;26952;42.884;23.918;2023-03-11T05:59:31;12.23;;;11.70;;
41221;SDS011;26952;42.884;23.918;2023-03-11T06:01:58;8.38;;;8.02;;
41221;SDS011;26952;42.884;23.918;2023-03-11T06:04:23;7.65;;;7.25;;
41221;SDS011;26952;42.884;23.918;2023-03-11T06:06:48;11.07;;;10.57;;
41221;SDS011;26952;42.884;23.918;2023-03-11T06:09:14;9.65;;;9.25;;
41221;SDS011;26952;42.884;23.918;2023-03-11T06:11:40;6.57;;;6.30;;
41221;SDS011;26952;42.884;23.918;2023-03-11T06:14:06;7.65;;;7.35;;
41221;SDS011;26952;42.884;23.918;2023-03-11T06:16:31;10.02;;;9.55;;
41221;SDS011;26952;42.884;23.918;2023-03-11T06:18:56;11.75;;;11.23;;
41221;SDS011;26952;42.884;23.918;2023-03-11T06:21:24;12.95;;;12.15;;
41221;SDS011;26952;42.884;23.918;2023-03-11T06:23:50;16.70;;;16.00;;
41221;SDS011;26952;42.884;23.918;2023-03-11T06:26:17;21.25;;;20.25;;
41221;SDS011;26952;42.884;23.918;2023-03-11T06:28:44;20.73;;;19.73;;
41221;SDS011;26952;42.884;23.918;2023-03-11T06:31:11;22.58;;;21.58;;
41221;SDS011;26952;42.884;23.918;2023-03-11T06:33:39;20.50;;;19.60;;
41221;SDS011;26952;42.884;23.918;2023-03-11T06:36:05;21.33;;;20.38;;
41221;SDS011;26952;42.884;23.918;2023-03-11T06:38:31;22.15;;;20.92;;
41221;SDS011;26952;42.884;23.918;2023-03-11T06:40:58;23.55;;;22.55;;
41221;SDS011;26952;42.884;23.918;2023-03-11T06:43:28;23.52;;;22.50;;
41221;SDS011;26952;42.884;23.918;2023-03-11T06:45:53;27.80;;;26.55;;
41221;SDS011;26952;42.884;23.918;2023-03-11T06:48:19;20.17;;;19.27;;
41221;SDS011;26952;42.884;23.918;2023-03-11T06:50:52;20.27;;;19.38;;
41221;SDS011;26952;42.884;23.918;2023-03-11T06:53:21;12.48;;;11.88;;
41221;SDS011;26952;42.884;23.918;2023-03-11T06:56:00;16.75;;;16.05;;
41221;SDS011;26952;42.884;23.918;2023-03-11T06:58:27;18.45;;;17.55;;
41221;SDS011;26952;42.884;23.918;2023-03-11T07:00:53;13.98;;;13.38;;
41221;SDS011;26952;42.884;23.918;2023-03-11T07:03:18;14.82;;;14.18;;
41221;SDS011;26952;42.884;23.918;2023-03-11T07:05:44;15.38;;;14.73;;
41221;SDS011;26952;42.884;23.918;2023-03-11T07:08:09;14.75;;;14.05;;
41221;SDS011;26952;42.884;23.918;2023-03-11T07:10:35;16.42;;;15.57;;
41221;SDS011;26952;42.884;23.918;2023-03-11T07:13:00;18.83;;;18.02;;
41221;SDS011;26952;42.884;23.918;2023-03-11T07:15:26;20.65;;;19.75;;
41221;SDS011;26952;42.884;23.918;2023-03-11T07:17:51;22.20;;;21.17;;
41221;SDS011;26952;42.884;23.918;2023-03-11T07:20:16;20.02;;;19.17;;
41221;SDS011;26952;42.884;23.918;2023-03-11T07:22:42;19.25;;;18.42;;
41221;SDS011;26952;42.884;23.918;2023-03-11T07:25:07;24.83;;;23.73;;
41221;SDS011;26952;42.884;23.918;2023-03-11T07:27:33;24.83;;;23.73;;
41221;SDS011;26952;42.884;23.918;2023-03-11T07:29:59;39.72;;;37.88;;
41221;SDS011;26952;42.884;23.918;2023-03-11T07:32:26;42.70;;;40.75;;
41221;SDS011;26952;42.884;23.918;2023-03-11T07:34:51;42.83;;;40.88;;
41221;SDS011;26952;42.884;23.918;2023-03-11T07:37:17;34.20;;;32.65;;
41221;SDS011;26952;42.884;23.918;2023-03-11T07:39:42;31.42;;;30.00;;
41221;SDS011;26952;42.884;23.918;2023-03-11T07:42:08;33.60;;;32.03;;
41221;SDS011;26952;42.884;23.918;2023-03-11T07:44:33;31.15;;;29.77;;
41221;SDS011;26952;42.884;23.918;2023-03-11T07:47:00;32.03;;;30.60;;
41221;SDS011;26952;42.884;23.918;2023-03-11T07:49:27;23.90;;;22.50;;
41221;SDS011;26952;42.884;23.918;2023-03-11T07:51:52;22.65;;;21.58;;
41221;SDS011;26952;42.884;23.918;2023-03-11T07:54:17;22.48;;;21.48;;
41221;SDS011;26952;42.884;23.918;2023-03-11T07:56:43;24.00;;;22.90;;
41221;SDS011;26952;42.884;23.918;2023-03-11T07:59:08;22.17;;;21.20;;
41221;SDS011;26952;42.884;23.918;2023-03-11T08:01:34;32.03;;;30.42;;
41221;SDS011;26952;42.884;23.918;2023-03-11T08:04:05;34.17;;;32.50;;
41221;SDS011;26952;42.884;23.918;2023-03-11T08:06:32;30.15;;;28.77;;
41221;SDS011;26952;42.884;23.918;2023-03-11T08:08:59;35.10;;;33.55;;
41221;SDS011;26952;42.884;23.918;2023-03-11T08:11:26;40.70;;;38.83;;
41221;SDS011;26952;42.884;23.918;2023-03-11T08:13:52;28.15;;;26.85;;
41221;SDS011;26952;42.884;23.918;2023-03-11T08:16:18;17.90;;;17.13;;
41221;SDS011;26952;42.884;23.918;2023-03-11T08:18:46;17.42;;;16.55;;
41221;SDS011;26952;42.884;23.918;2023-03-11T08:21:13;20.15;;;19.23;;
41221;SDS011;26952;42.884;23.918;2023-03-11T08:23:41;22.05;;;21.08;;
41221;SDS011;26952;42.884;23.918;2023-03-11T08:26:08;25.25;;;24.10;;
41221;SDS011;26952;42.884;23.918;2023-03-11T08:28:35;29.75;;;28.42;;
41221;SDS011;26952;42.884;23.918;2023-03-11T08:31:01;25.77;;;24.65;;
41221;SDS011;26952;42.884;23.918;2023-03-11T08:33:27;36.55;;;34.90;;
41221;SDS011;26952;42.884;23.918;2023-03-11T08:35:53;40.40;;;38.55;;
41221;SDS011;26952;42.884;23.918;2023-03-11T08:38:19;48.97;;;46.67;;
41221;SDS011;26952;42.884;23.918;2023-03-11T08:40:44;39.00;;;37.17;;
41221;SDS011;26952;42.884;23.918;2023-03-11T08:43:13;29.80;;;28.35;;
41221;SDS011;26952;42.884;23.918;2023-03-11T08:45:39;40.33;;;38.42;;
41221;SDS011;26952;42.884;23.918;2023-03-11T08:48:05;20.90;;;19.92;;
41221;SDS011;26952;42.884;23.918;2023-03-11T08:50:33;20.67;;;19.75;;
41221;SDS011;26952;42.884;23.918;2023-03-11T08:52:58;29.38;;;28.00;;
41221;SDS011;26952;42.884;23.918;2023-03-11T08:55:27;17.95;;;17.05;;
41221;SDS011;26952;42.884;23.918;2023-03-11T08:57:53;21.58;;;20.50;;
41221;SDS011;26952;42.884;23.918;2023-03-11T09:00:19;14.25;;;13.63;;
41221;SDS011;26952;42.884;23.918;2023-03-11T09:02:45;12.05;;;11.48;;
41221;SDS011;26952;42.884;23.918;2023-03-11T09:05:11;12.82;;;12.13;;
41221;SDS011;26952;42.884;23.918;2023-03-11T09:07:37;14.50;;;13.70;;
41221;SDS011;26952;42.884;23.918;2023-03-11T09:10:02;14.57;;;13.93;;
41221;SDS011;26952;42.884;23.918;2023-03-11T09:12:28;13.00;;;12.38;;
41221;SDS011;26952;42.884;23.918;2023-03-11T09:14:54;14.15;;;13.55;;
41221;SDS011;26952;42.884;23.918;2023-03-11T09:17:20;14.82;;;14.20;;
41221;SDS011;26952;42.884;23.918;2023-03-11T09:19:45;15.07;;;14.38;;
41221;SDS011;26952;42.884;23.918;2023-03-11T09:22:11;13.07;;;12.48;;
41221;SDS011;26952;42.884;23.918;2023-03-11T09:24:36;14.43;;;13.80;;
41221;SDS011;26952;42.884;23.918;2023-03-11T09:27:02;13.25;;;12.65;;
41221;SDS011;26952;42.884;23.918;2023-03-11T09:29:27;14.85;;;14.00;;
41221;SDS011;26952;42.884;23.918;2023-03-11T09:31:53;17.80;;;17.00;;
41221;SDS011;26952;42.884;23.918;2023-03-11T09:34:18;25.88;;;24.58;;
41221;SDS011;26952;42.884;23.918;2023-03-11T09:36:44;22.60;;;21.55;;
41221;SDS011;26952;42.884;23.918;2023-03-11T09:39:09;34.28;;;32.60;;
41221;SDS011;26952;42.884;23.918;2023-03-11T09:44:27;27.30;;;26.02;;
41221;SDS011;26952;42.884;23.918;2023-03-11T09:55:41;28.88;;;27.55;;
41221;SDS011;26952;42.884;23.918;2023-03-11T09:58:21;21.52;;;20.52;;
41221;SDS011;26952;42.884;23.918;2023-03-11T10:00:58;16.55;;;15.55;;
41221;SDS011;26952;42.884;23.918;2023-03-11T10:03:26;19.58;;;18.73;;
41221;SDS011;26952;42.884;23.918;2023-03-11T10:06:19;29.40;;;28.10;;
41221;SDS011;26952;42.884;23.918;2023-03-11T10:28:14;28.73;;;27.35;;
41221;SDS011;26952;42.884;23.918;2023-03-11T10:35:50;27.73;;;26.40;;
41221;SDS011;26952;42.884;23.918;2023-03-11T10:38:19;28.08;;;26.67;;
41221;SDS011;26952;42.884;23.918;2023-03-11T10:40:50;27.80;;;26.45;;
41221;SDS011;26952;42.884;23.918;2023-03-11T10:46:08;14.40;;;13.65;;
41221;SDS011;26952;42.884;23.918;2023-03-11T10:48:42;21.08;;;20.10;;
41221;SDS011;26952;42.884;23.918;2023-03-11T10:53:58;9.83;;;9.20;;
41221;SDS011;26952;42.884;23.918;2023-03-11T10:56:25;13.43;;;12.75;;
41221;SDS011;26952;42.884;23.918;2023-03-11T10:58:58;12.05;;;11.15;;
41221;SDS011;26952;42.884;23.918;2023-03-11T11:01:24;12.50;;;11.88;;
41221;SDS011;26952;42.884;23.918;2023-03-11T11:03:51;13.70;;;12.80;;
41221;SDS011;26952;42.884;23.918;2023-03-11T11:11:59;14.20;;;13.55;;
41221;SDS011;26952;42.884;23.918;2023-03-11T11:14:48;14.63;;;13.98;;
41221;SDS011;26952;42.884;23.918;2023-03-11T11:17:31;16.92;;;16.05;;
41221;SDS011;26952;42.884;23.918;2023-03-11T11:19:58;14.23;;;13.38;;
41221;SDS011;26952;42.884;23.918;2023-03-11T11:22:37;12.75;;;12.15;;
41221;SDS011;26952;42.884;23.918;2023-03-11T11:25:22;19.67;;;18.77;;
41221;SDS011;26952;42.884;23.918;2023-03-11T11:28:14;19.85;;;18.75;;
41221;SDS011;26952;42.884;23.918;2023-03-11T11:33:28;9.02;;;8.52;;
41221;SDS011;26952;42.884;23.918;2023-03-11T11:35:56;6.47;;;6.15;;
41221;SDS011;26952;42.884;23.918;2023-03-11T11:38:27;7.13;;;6.82;;
41221;SDS011;26952;42.884;23.918;2023-03-11T11:40:54;8.63;;;8.13;;
41221;SDS011;26952;42.884;23.918;2023-03-11T11:43:45;6.47;;;6.15;;
41221;SDS011;26952;42.884;23.918;2023-03-11T11:48:49;6.38;;;5.97;;
41221;SDS011;26952;42.884;23.918;2023-03-11T11:51:29;6.57;;;6.18;;
41221;SDS011;26952;42.884;23.918;2023-03-11T11:56:37;5.72;;;5.43;;
41221;SDS011;26952;42.884;23.918;2023-03-11T11:59:08;7.85;;;7.35;;
41221;SDS011;26952;42.884;23.918;2023-03-11T12:09:59;5.50;;;5.30;;
41221;SDS011;26952;42.884;23.918;2023-03-11T12:12:31;5.53;;;5.22;;
41221;SDS011;26952;42.884;23.918;2023-03-11T12:20:31;5.22;;;4.93;;
41221;SDS011;26952;42.884;23.918;2023-03-11T12:31:11;7.40;;;7.00;;
41221;SDS011;26952;42.884;23.918;2023-03-11T12:33:41;6.30;;;5.90;;
41221;SDS011;26952;42.884;23.918;2023-03-11T12:36:43;6.90;;;6.50;;
41221;SDS011;26952;42.884;23.918;2023-03-11T12:39:05;5.65;;;5.35;;
41221;SDS011;26952;42.884;23.918;2023-03-11T12:41:33;6.35;;;6.00;;
41221;SDS011;26952;42.884;23.918;2023-03-11T12:44:25;6.78;;;6.40;;
41221;SDS011;26952;42.884;23.918;2023-03-11T12:49:38;7.07;;;6.68;;
41221;SDS011;26952;42.884;23.918;2023-03-11T12:57:24;7.57;;;6.93;;
41221;SDS011;26952;42.884;23.918;2023-03-11T13:00:12;7.13;;;5.97;;
41221;SDS011;26952;42.884;23.918;2023-03-11T13:06:03;11.27;;;10.57;;
41221;SDS011;26952;42.884;23.918;2023-03-11T13:08:49;8.35;;;7.75;;
41221;SDS011;26952;42.884;23.918;2023-03-11T13:11:33;9.98;;;9.38;;
41221;SDS011;26952;42.884;23.918;2023-03-11T13:14:48;10.88;;;10.18;;
41221;SDS011;26952;42.884;23.918;2023-03-11T13:19:50;14.40;;;13.70;;
41221;SDS011;26952;42.884;23.918;2023-03-11T13:25:29;13.32;;;12.63;;
41221;SDS011;26952;42.884;23.918;2023-03-11T13:34:02;15.85;;;15.00;;
41221;SDS011;26952;42.884;23.918;2023-03-11T13:39:12;14.07;;;13.32;;
41221;SDS011;26952;42.884;23.918;2023-03-11T13:41:42;15.27;;;14.38;;
41221;SDS011;26952;42.884;23.918;2023-03-11T13:46:43;14.25;;;13.35;;
41221;SDS011;26952;42.884;23.918;2023-03-11T13:51:57;15.00;;;14.25;;
41221;SDS011;26952;42.884;23.918;2023-03-11T13:54:31;15.55;;;14.65;;
41221;SDS011;26952;42.884;23.918;2023-03-11T13:57:02;13.75;;;13.07;;
41221;SDS011;26952;42.884;23.918;2023-03-11T13:59:31;14.40;;;13.45;;
41221;SDS011;26952;42.884;23.918;2023-03-11T14:02:18;13.93;;;13.30;;
41221;SDS011;26952;42.884;23.918;2023-03-11T14:05:05;15.32;;;14.43;;
41221;SDS011;26952;42.884;23.918;2023-03-11T14:07:37;15.80;;;14.90;;
41221;SDS011;26952;42.884;23.918;2023-03-11T14:10:22;13.52;;;12.70;;
41221;SDS011;26952;42.884;23.918;2023-03-11T14:15:42;27.05;;;25.67;;
41221;SDS011;26952;42.884;23.918;2023-03-11T14:18:45;22.15;;;20.95;;
41221;SDS011;26952;42.884;23.918;2023-03-11T14:21:16;14.88;;;14.07;;
41221;SDS011;26952;42.884;23.918;2023-03-11T14:23:44;17.17;;;16.27;;
41221;SDS011;26952;42.884;23.918;2023-03-11T14:26:12;14.52;;;13.82;;
41221;SDS011;26952;42.884;23.918;2023-03-11T14:28:51;15.50;;;14.68;;
41221;SDS011;26952;42.884;23.918;2023-03-11T14:31:31;18.75;;;17.65;;
41221;SDS011;26952;42.884;23.918;2023-03-11T14:34:14;17.70;;;16.77;;
41221;SDS011;26952;42.884;23.918;2023-03-11T14:36:42;15.63;;;14.63;;
41221;SDS011;26952;42.884;23.918;2023-03-11T14:41:50;11.63;;;11.02;;
41221;SDS011;26952;42.884;23.918;2023-03-11T14:44:39;10.50;;;10.00;;
41221;SDS011;26952;42.884;23.918;2023-03-11T14:47:17;9.57;;;9.02;;
41221;SDS011;26952;42.884;23.918;2023-03-11T14:49:48;8.68;;;8.27;;
41221;SDS011;26952;42.884;23.918;2023-03-11T14:52:17;13.10;;;12.38;;
41221;SDS011;26952;42.884;23.918;2023-03-11T14:54:48;8.32;;;7.93;;
41221;SDS011;26952;42.884;23.918;2023-03-11T14:59:51;10.60;;;10.10;;
41221;SDS011;26952;42.884;23.918;2023-03-11T15:05:07;17.85;;;17.05;;
41221;SDS011;26952;42.884;23.918;2023-03-11T15:07:41;12.25;;;11.55;;
41221;SDS011;26952;42.884;23.918;2023-03-11T15:10:08;19.40;;;18.45;;
41221;SDS011;26952;42.884;23.918;2023-03-11T15:12:36;21.80;;;20.75;;
41221;SDS011;26952;42.884;23.918;2023-03-11T15:15:19;28.98;;;27.33;;
41221;SDS011;26952;42.884;23.918;2023-03-11T15:17:58;22.20;;;21.00;;
41221;SDS011;26952;42.884;23.918;2023-03-11T15:20:34;16.55;;;15.48;;
41221;SDS011;26952;42.884;23.918;2023-03-11T15:23:02;6.65;;;6.05;;
41221;SDS011;26952;42.884;23.918;2023-03-11T15:25:31;24.45;;;22.83;;
41221;SDS011;26952;42.884;23.918;2023-03-11T15:27:59;14.13;;;13.30;;
41221;SDS011;26952;42.884;23.918;2023-03-11T15:33:45;30.63;;;28.92;;
41221;SDS011;26952;42.884;23.918;2023-03-11T15:36:31;31.90;;;30.05;;
41221;SDS011;26952;42.884;23.918;2023-03-11T15:44:32;25.48;;;23.67;;
41221;SDS011;26952;42.884;23.918;2023-03-11T15:47:00;25.25;;;23.85;;
41221;SDS011;26952;42.884;23.918;2023-03-11T15:49:28;19.55;;;18.45;;
41221;SDS011;26952;42.884;23.918;2023-03-11T15:51:58;20.98;;;19.40;;
41221;SDS011;26952;42.884;23.918;2023-03-11T15:54:24;16.02;;;14.98;;
41221;SDS011;26952;42.884;23.918;2023-03-11T15:56:49;13.23;;;12.48;;
41221;SDS011;26952;42.884;23.918;2023-03-11T15:59:15;14.13;;;13.02;;
41221;SDS011;26952;42.884;23.918;2023-03-11T16:01:41;14.80;;;13.90;;
41221;SDS011;26952;42.884;23.918;2023-03-11T16:04:11;16.77;;;15.45;;
41221;SDS011;26952;42.884;23.918;2023-03-11T16:06:38;14.32;;;13.30;;
41221;SDS011;26952;42.884;23.918;2023-03-11T16:09:04;12.95;;;12.25;;
41221;SDS011;26952;42.884;23.918;2023-03-11T16:11:29;10.35;;;9.85;;
41221;SDS011;26952;42.884;23.918;2023-03-11T16:13:56;12.05;;;11.00;;
41221;SDS011;26952;42.884;23.918;2023-03-11T16:16:22;9.35;;;8.88;;
41221;SDS011;26952;42.884;23.918;2023-03-11T16:18:48;8.40;;;7.90;;
41221;SDS011;26952;42.884;23.918;2023-03-11T16:21:14;7.25;;;6.80;;
41221;SDS011;26952;42.884;23.918;2023-03-11T16:23:42;6.43;;;5.82;;
41221;SDS011;26952;42.884;23.918;2023-03-11T16:26:08;14.95;;;13.73;;
41221;SDS011;26952;42.884;23.918;2023-03-11T16:28:37;6.03;;;5.53;;
41221;SDS011;26952;42.884;23.918;2023-03-11T16:31:03;6.13;;;5.40;;
41221;SDS011;26952;42.884;23.918;2023-03-11T16:33:28;6.43;;;5.70;;
41221;SDS011;26952;42.884;23.918;2023-03-11T16:35:54;7.20;;;6.80;;
41221;SDS011;26952;42.884;23.918;2023-03-11T16:38:19;5.68;;;5.28;;